Time;durP1;ratioP1;P1;durP2;ratioP2;P2;SDS_P1;SDS_P2;PMS_P1;PMS_P2;Temp;Humidity;BMP_temperature;BMP_pressure;BME280_temperature;BME280_humidity;BME280_pressure;Samples;Min_cycle;Max_cycle;Signal;HPM_P1;HPM_P2
2023/03/06 00:00:52;;;;;;;26.60;11.73;;;4.30;73.60;;;;;;5029741;28;20908;-74
2023/03/06 00:03:18;;;;;;;28.90;11.13;;;4.30;73.60;;;;;;5049759;28;20984;-72
2023/03/06 00:05:44;;;;;;;27.50;11.40;;;4.30;73.50;;;;;;5046609;28;20466;-74
2023/03/06 00:08:10;;;;;;;28.80;11.17;;;4.30;73.50;;;;;;5030622;28;20467;-73
2023/03/06 00:10:36;;;;;;;29.37;13.20;;;4.30;73.60;;;;;;5047993;28;20188;-72
2023/03/06 00:13:04;;;;;;;22.80;12.30;;;4.30;73.60;;;;;;5048935;28;20419;-73
2023/03/06 00:15:30;;;;;;;29.00;12.20;;;4.30;73.70;;;;;;5046803;28;20455;-73
2023/03/06 00:17:57;;;;;;;30.73;14.30;;;4.20;74.00;;;;;;5047748;28;20517;-71
2023/03/06 00:20:24;;;;;;;29.80;13.60;;;4.20;74.20;;;;;;5045500;28;20434;-74
2023/03/06 00:22:50;;;;;;;25.97;12.40;;;4.10;74.20;;;;;;5054577;28;20471;-73
2023/03/06 00:25:18;;;;;;;26.30;12.87;;;4.10;74.30;;;;;;5056111;28;21372;-73
2023/03/06 00:27:44;;;;;;;29.57;12.20;;;4.10;74.00;;;;;;5045286;28;20235;-73
2023/03/06 00:30:12;;;;;;;25.40;12.23;;;4.00;74.00;;;;;;5051206;28;20439;-74
2023/03/06 00:32:38;;;;;;;31.73;12.90;;;4.00;73.90;;;;;;5040105;28;20184;-73
2023/03/06 00:35:04;;;;;;;26.03;12.30;;;4.00;73.90;;;;;;5048859;28;20442;-72
2023/03/06 00:37:30;;;;;;;22.97;11.70;;;4.00;73.70;;;;;;5054799;28;20208;-73
2023/03/06 00:39:55;;;;;;;22.77;11.27;;;4.00;73.60;;;;;;5043107;28;20551;-72
2023/03/06 00:42:21;;;;;;;24.03;12.27;;;4.00;73.70;;;;;;5054069;28;20204;-72
2023/03/06 00:44:46;;;;;;;25.97;12.00;;;4.10;73.70;;;;;;5046746;28;20196;-74
2023/03/06 00:47:15;;;;;;;29.73;12.30;;;4.10;73.50;;;;;;5042444;28;20751;-71
2023/03/06 00:49:42;;;;;;;25.33;11.63;;;4.20;73.50;;;;;;5048604;28;20181;-74
2023/03/06 00:52:07;;;;;;;27.30;12.50;;;4.20;73.50;;;;;;5048565;28;20513;-72
2023/03/06 00:54:33;;;;;;;28.07;13.00;;;4.20;73.50;;;;;;5049724;28;20463;-72
2023/03/06 00:56:58;;;;;;;25.47;12.57;;;4.20;73.30;;;;;;5044834;28;20227;-72
2023/03/06 00:59:24;;;;;;;28.53;12.47;;;4.10;73.50;;;;;;5045995;28;20275;-72
2023/03/06 01:01:50;;;;;;;30.17;12.70;;;4.20;73.70;;;;;;5047127;28;20200;-75
2023/03/06 01:04:15;;;;;;;29.57;14.13;;;4.30;73.90;;;;;;5045630;28;20185;-74
2023/03/06 01:06:41;;;;;;;29.43;13.93;;;4.40;74.00;;;;;;5044037;28;20188;-73
2023/03/06 01:09:06;;;;;;;27.27;12.70;;;4.40;74.00;;;;;;5042304;28;20185;-71
2023/03/06 01:11:32;;;;;;;29.27;13.40;;;4.40;74.00;;;;;;5045925;28;20177;-72
2023/03/06 01:13:58;;;;;;;30.13;13.73;;;4.40;74.20;;;;;;5027355;28;20272;-72
2023/03/06 01:16:23;;;;;;;30.87;13.10;;;4.40;74.00;;;;;;5031205;28;20191;-73
2023/03/06 01:18:49;;;;;;;40.20;13.20;;;4.40;74.20;;;;;;5051224;28;20603;-73
2023/03/06 01:21:15;;;;;;;31.73;13.13;;;4.40;74.00;;;;;;5059192;28;20227;-72
2023/03/06 01:23:41;;;;;;;27.90;12.90;;;4.30;73.90;;;;;;5054234;28;20540;-72
2023/03/06 01:26:07;;;;;;;33.53;14.03;;;4.20;74.00;;;;;;5066823;28;20209;-75
2023/03/06 01:28:33;;;;;;;28.30;13.60;;;4.30;74.20;;;;;;5058403;28;20458;-72
2023/03/06 01:31:00;;;;;;;33.33;13.67;;;4.30;74.20;;;;;;5055939;28;20422;-71
2023/03/06 01:33:26;;;;;;;30.97;13.63;;;4.20;74.20;;;;;;5050535;28;20540;-72
2023/03/06 01:35:51;;;;;;;31.83;13.43;;;4.10;74.20;;;;;;5037717;28;20883;-73
2023/03/06 01:38:17;;;;;;;26.03;13.67;;;4.10;74.20;;;;;;5050302;28;20213;-73
2023/03/06 01:40:43;;;;;;;32.50;13.23;;;4.20;74.30;;;;;;5035482;28;20235;-72
2023/03/06 01:43:10;;;;;;;27.67;11.80;;;4.10;74.20;;;;;;5048977;28;20220;-74
2023/03/06 01:45:35;;;;;;;30.60;13.43;;;4.10;74.50;;;;;;5051537;28;20176;-74
2023/03/06 01:48:01;;;;;;;30.13;13.70;;;4.10;74.50;;;;;;5050279;28;20453;-74
2023/03/06 01:50:27;;;;;;;28.63;12.03;;;4.10;74.50;;;;;;5049279;28;20230;-72
2023/03/06 01:52:58;;;;;;;24.33;12.13;;;4.20;74.30;;;;;;5056245;28;20278;-73
2023/03/06 01:55:33;;;;;;;28.80;11.90;;;4.20;74.20;;;;;;5056012;28;20433;-74
2023/03/06 01:58:03;;;;;;;31.23;13.00;;;4.10;73.90;;;;;;5049555;28;20484;-73
2023/03/06 02:00:28;;;;;;;25.40;11.80;;;4.00;73.90;;;;;;5036655;28;20415;-73
2023/03/06 02:02:55;;;;;;;32.30;13.40;;;3.90;73.90;;;;;;5051989;28;20461;-75
2023/03/06 02:05:21;;;;;;;19.90;10.83;;;4.00;74.30;;;;;;5055194;28;20437;-75
2023/03/06 02:07:48;;;;;;;18.70;10.60;;;4.00;74.20;;;;;;5047931;28;20459;-74
2023/03/06 02:10:16;;;;;;;26.20;11.20;;;4.10;73.90;;;;;;5052180;28;20458;-74
2023/03/06 02:12:42;;;;;;;20.23;10.57;;;4.00;73.70;;;;;;5052295;28;20444;-74
2023/03/06 02:15:11;;;;;;;23.10;10.00;;;4.00;73.60;;;;;;5051683;28;20460;-74
2023/03/06 02:17:36;;;;;;;21.30;9.53;;;3.90;73.70;;;;;;5028095;28;20466;-71
2023/03/06 02:20:26;;;;;;;20.43;9.47;;;4.00;73.90;;;;;;5054915;28;20508;-72
2023/03/06 02:23:08;;;;;;;22.63;11.33;;;4.00;73.90;;;;;;5050464;28;20250;-74
2023/03/06 02:25:45;;;;;;;24.10;10.30;;;4.10;73.60;;;;;;5047901;28;20403;-73
2023/03/06 02:28:17;;;;;;;27.33;10.50;;;4.10;73.50;;;;;;5044924;28;21018;-73
2023/03/06 02:30:45;;;;;;;24.60;10.67;;;4.10;73.60;;;;;;5052002;28;20438;-73
2023/03/06 02:33:17;;;;;;;26.70;11.60;;;4.10;73.50;;;;;;5052522;28;20415;-71
2023/03/06 02:36:02;;;;;;;28.23;11.77;;;4.00;73.50;;;;;;5051380;28;20503;-74
2023/03/06 02:38:33;;;;;;;20.37;10.27;;;4.00;73.60;;;;;;5046451;28;20463;-74
2023/03/06 02:41:02;;;;;;;25.73;12.10;;;3.90;73.70;;;;;;5050783;28;20423;-73
2023/03/06 02:43:30;;;;;;;28.53;11.97;;;4.00;73.70;;;;;;5052195;28;20466;-73
2023/03/06 02:45:56;;;;;;;23.33;12.10;;;4.00;73.90;;;;;;5051033;28;20480;-73
2023/03/06 02:48:21;;;;;;;22.80;11.63;;;4.00;73.70;;;;;;5030678;28;20462;-73
2023/03/06 02:50:47;;;;;;;31.53;11.50;;;4.00;73.70;;;;;;5051229;28;20545;-74
2023/03/06 02:53:16;;;;;;;27.30;13.00;;;4.00;73.70;;;;;;5045532;28;20185;-75
2023/03/06 02:55:42;;;;;;;25.33;10.53;;;4.10;74.00;;;;;;5051628;28;20424;-74
2023/03/06 02:58:08;;;;;;;23.27;12.20;;;4.10;74.20;;;;;;5043525;28;20473;-72
2023/03/06 03:00:34;;;;;;;26.10;11.40;;;4.00;73.90;;;;;;5050135;28;20438;-73
2023/03/06 03:03:00;;;;;;;29.00;13.03;;;4.00;73.90;;;;;;5047388;28;20463;-71
2023/03/06 03:05:26;;;;;;;21.33;11.17;;;4.10;74.30;;;;;;5046120;28;20419;-74
2023/03/06 03:07:51;;;;;;;27.23;11.57;;;4.10;74.20;;;;;;5042428;28;20462;-73
2023/03/06 03:10:17;;;;;;;28.03;12.00;;;4.10;74.00;;;;;;5045852;28;20177;-73
2023/03/06 03:12:43;;;;;;;22.47;11.30;;;4.10;73.70;;;;;;5051408;28;20678;-73
2023/03/06 03:15:09;;;;;;;24.20;11.33;;;4.20;73.70;;;;;;5032434;28;20199;-72
2023/03/06 03:17:36;;;;;;;23.10;11.07;;;4.20;73.50;;;;;;5046807;28;20470;-72
2023/03/06 03:20:03;;;;;;;20.43;9.83;;;4.20;73.30;;;;;;5032398;28;20419;-71
2023/03/06 03:22:29;;;;;;;20.30;11.43;;;4.10;73.30;;;;;;5049928;28;20506;-71
2023/03/06 03:24:54;;;;;;;22.90;11.20;;;4.10;73.50;;;;;;5049872;28;20888;-72
2023/03/06 03:27:20;;;;;;;26.97;11.27;;;4.10;73.60;;;;;;5050660;28;20651;-72
2023/03/06 03:29:45;;;;;;;25.60;11.43;;;4.00;73.60;;;;;;5051871;28;20188;-72
2023/03/06 03:32:11;;;;;;;24.97;11.23;;;4.00;73.70;;;;;;5054814;28;20267;-72
2023/03/06 03:34:36;;;;;;;26.23;10.70;;;4.00;73.90;;;;;;5052719;28;20267;-72
2023/03/06 03:37:02;;;;;;;23.00;10.77;;;3.90;73.70;;;;;;5044899;28;20217;-71
2023/03/06 03:39:28;;;;;;;23.80;10.40;;;3.90;73.70;;;;;;5049905;28;20192;-72
2023/03/06 03:41:53;;;;;;;23.33;10.37;;;3.90;73.70;;;;;;5051586;28;20212;-73
2023/03/06 03:44:19;;;;;;;19.60;10.17;;;3.90;73.70;;;;;;5047844;28;20690;-73
2023/03/06 03:46:45;;;;;;;24.00;10.10;;;3.80;73.60;;;;;;5043391;28;20190;-73
2023/03/06 03:49:10;;;;;;;21.13;9.80;;;3.80;73.70;;;;;;5043010;28;20941;-72
2023/03/06 03:51:36;;;;;;;23.40;10.33;;;3.90;73.70;;;;;;5047601;28;20714;-72
2023/03/06 03:54:04;;;;;;;24.97;10.03;;;3.90;73.60;;;;;;5026590;28;20192;-73
2023/03/06 03:56:30;;;;;;;21.97;10.20;;;3.90;73.50;;;;;;5045624;28;20211;-71
2023/03/06 03:58:56;;;;;;;25.77;11.27;;;3.90;73.70;;;;;;5023058;28;20450;-73
2023/03/06 04:01:22;;;;;;;21.67;9.53;;;3.80;73.90;;;;;;5049652;28;20643;-72
2023/03/06 04:03:48;;;;;;;26.53;9.80;;;3.70;74.00;;;;;;5049631;28;20493;-73
2023/03/06 04:06:13;;;;;;;17.53;9.90;;;3.70;74.00;;;;;;5049674;28;20180;-73
2023/03/06 04:08:39;;;;;;;21.13;10.13;;;3.70;74.20;;;;;;5044774;28;20307;-71
2023/03/06 04:11:05;;;;;;;22.70;9.60;;;3.70;74.20;;;;;;5049800;28;20193;-74
2023/03/06 04:13:31;;;;;;;21.90;10.13;;;3.80;74.00;;;;;;5050737;28;20223;-73
2023/03/06 04:15:58;;;;;;;23.70;10.80;;;3.70;73.90;;;;;;5050286;28;20471;-73
2023/03/06 04:18:24;;;;;;;22.37;10.53;;;3.80;74.00;;;;;;5044576;28;20201;-73
2023/03/06 04:20:49;;;;;;;25.53;10.10;;;3.70;74.00;;;;;;5047019;28;20475;-73
2023/03/06 04:23:16;;;;;;;16.53;8.87;;;3.70;74.00;;;;;;5049456;28;20212;-73
2023/03/06 04:25:42;;;;;;;25.40;11.10;;;3.70;74.00;;;;;;5045860;28;20552;-72
2023/03/06 04:28:08;;;;;;;20.30;9.53;;;3.80;73.90;;;;;;5043244;28;20458;-71
2023/03/06 04:30:33;;;;;;;25.90;10.47;;;3.90;73.90;;;;;;5050233;28;20989;-74
2023/03/06 04:32:59;;;;;;;21.63;10.27;;;3.90;73.70;;;;;;5049993;28;20426;-73
2023/03/06 04:35:25;;;;;;;18.07;9.73;;;3.80;73.70;;;;;;5046203;28;20430;-74
2023/03/06 04:37:51;;;;;;;19.60;10.20;;;3.70;73.90;;;;;;5044685;28;20215;-73
2023/03/06 04:40:23;;;;;;;23.10;10.67;;;3.70;74.20;;;;;;5049585;28;20447;-75
2023/03/06 04:42:49;;;;;;;22.47;9.90;;;3.70;74.00;;;;;;5030020;28;20524;-74
2023/03/06 04:45:15;;;;;;;21.60;9.50;;;3.70;74.20;;;;;;5042482;28;20906;-72
2023/03/06 04:47:41;;;;;;;18.60;9.13;;;3.70;74.20;;;;;;5043392;28;20205;-74
2023/03/06 04:50:08;;;;;;;20.17;9.63;;;3.70;74.30;;;;;;5040428;28;20416;-73
2023/03/06 04:52:34;;;;;;;21.60;10.60;;;3.70;74.00;;;;;;5045336;28;20449;-73
2023/03/06 04:54:59;;;;;;;18.70;9.23;;;3.70;74.00;;;;;;5045958;28;20414;-72
2023/03/06 04:57:25;;;;;;;16.93;9.53;;;3.70;74.00;;;;;;5046674;28;21004;-73
2023/03/06 04:59:50;;;;;;;19.40;10.40;;;3.60;74.20;;;;;;5050367;28;20199;-74
2023/03/06 05:02:17;;;;;;;26.07;9.57;;;3.60;74.20;;;;;;5050489;28;20199;-72
2023/03/06 05:04:42;;;;;;;25.63;11.23;;;3.50;74.20;;;;;;5049243;28;20184;-73
2023/03/06 05:07:08;;;;;;;22.97;10.57;;;3.50;74.30;;;;;;5044686;28;20462;-73
2023/03/06 05:09:34;;;;;;;20.47;10.00;;;3.50;74.30;;;;;;5052711;28;20180;-72
2023/03/06 05:12:00;;;;;;;21.57;10.30;;;3.50;74.50;;;;;;5026464;28;21163;-72
2023/03/06 05:14:29;;;;;;;23.30;9.80;;;3.50;74.50;;;;;;5051711;28;20419;-74
2023/03/06 05:16:55;;;;;;;18.60;9.23;;;3.40;74.60;;;;;;5030325;28;20200;-74
2023/03/06 05:19:20;;;;;;;22.10;9.73;;;3.40;74.50;;;;;;5048463;28;20424;-73
2023/03/06 05:21:46;;;;;;;21.83;9.03;;;3.40;74.50;;;;;;5050024;28;20493;-73
2023/03/06 05:24:11;;;;;;;19.60;9.20;;;3.30;74.80;;;;;;5049862;28;20335;-74
2023/03/06 05:26:37;;;;;;;18.00;9.10;;;3.30;74.90;;;;;;5043499;28;20873;-73
2023/03/06 05:29:03;;;;;;;19.53;9.43;;;3.30;75.10;;;;;;5047069;28;20184;-73
2023/03/06 05:31:28;;;;;;;22.37;9.87;;;3.30;74.90;;;;;;5049607;28;20559;-72
2023/03/06 05:33:54;;;;;;;21.30;9.30;;;3.30;75.10;;;;;;5048777;28;20241;-74
2023/03/06 05:36:19;;;;;;;22.63;8.73;;;3.20;75.10;;;;;;5047294;28;20192;-74
2023/03/06 05:38:45;;;;;;;18.87;8.97;;;3.30;75.10;;;;;;5024818;28;20273;-74
2023/03/06 05:41:14;;;;;;;21.00;8.63;;;3.30;74.90;;;;;;5025008;28;20188;-73
2023/03/06 05:43:39;;;;;;;18.53;8.83;;;3.30;74.90;;;;;;5027970;28;20204;-73
2023/03/06 05:46:06;;;;;;;19.70;9.47;;;3.30;74.80;;;;;;5049308;28;20422;-72
2023/03/06 05:48:33;;;;;;;17.97;9.13;;;3.30;74.90;;;;;;5040716;28;20288;-72
2023/03/06 05:51:00;;;;;;;19.37;9.20;;;3.30;74.90;;;;;;5049147;28;20422;-73
2023/03/06 05:53:25;;;;;;;21.60;9.50;;;3.30;74.90;;;;;;5049009;28;20458;-73
2023/03/06 05:55:58;;;;;;;21.37;9.37;;;3.30;74.80;;;;;;5047251;28;20419;-74
2023/03/06 05:58:24;;;;;;;19.30;9.70;;;3.30;74.80;;;;;;5043146;28;20258;-72
2023/03/06 06:00:51;;;;;;;19.40;9.53;;;3.40;74.50;;;;;;5045344;28;20427;-73
2023/03/06 06:03:17;;;;;;;20.40;8.47;;;3.40;74.30;;;;;;5049165;28;20527;-72
2023/03/06 06:05:42;;;;;;;23.70;9.10;;;3.40;74.30;;;;;;5047057;28;20423;-74
2023/03/06 06:08:08;;;;;;;19.47;8.70;;;3.40;74.30;;;;;;5049493;28;20469;-73
2023/03/06 06:10:34;;;;;;;20.20;9.23;;;3.40;74.20;;;;;;5028385;28;20248;-74
2023/03/06 06:12:59;;;;;;;22.10;10.20;;;3.50;74.20;;;;;;5052976;28;20184;-73
2023/03/06 06:15:27;;;;;;;19.30;9.30;;;3.40;74.30;;;;;;5052839;28;20220;-74
2023/03/06 06:17:56;;;;;;;20.90;8.77;;;3.40;74.30;;;;;;5053691;28;20763;-73
2023/03/06 06:20:23;;;;;;;21.10;10.47;;;3.40;74.50;;;;;;5055054;28;20848;-73
2023/03/06 06:22:49;;;;;;;21.13;9.90;;;3.40;74.50;;;;;;5055629;28;20557;-73
2023/03/06 06:25:14;;;;;;;17.70;8.43;;;3.50;74.30;;;;;;5063028;28;20443;-72
2023/03/06 06:27:40;;;;;;;19.07;8.40;;;3.50;74.50;;;;;;5053837;28;20462;-74
2023/03/06 06:30:07;;;;;;;18.67;9.13;;;3.40;74.30;;;;;;5049270;28;20189;-75
2023/03/06 06:32:33;;;;;;;22.90;10.00;;;3.50;74.50;;;;;;5052829;28;20666;-73
2023/03/06 06:34:58;;;;;;;18.17;8.77;;;3.50;74.50;;;;;;5051251;28;20423;-73
2023/03/06 06:37:24;;;;;;;22.23;9.33;;;3.50;74.50;;;;;;5049554;28;20223;-73
2023/03/06 06:39:50;;;;;;;22.40;8.80;;;3.50;73.90;;;;;;5051141;28;20208;-71
2023/03/06 06:42:17;;;;;;;23.93;8.53;;;3.50;73.90;;;;;;5051642;28;20541;-73
2023/03/06 06:44:43;;;;;;;19.47;8.97;;;3.60;73.90;;;;;;5049609;28;20512;-73
2023/03/06 06:47:08;;;;;;;20.80;9.30;;;3.60;73.60;;;;;;5047064;28;20583;-70
2023/03/06 06:49:35;;;;;;;32.20;9.80;;;3.60;73.50;;;;;;5047265;28;20519;-71
2023/03/06 06:52:01;;;;;;;20.07;9.67;;;3.60;73.50;;;;;;5050133;28;20269;-72
2023/03/06 06:54:27;;;;;;;23.40;9.67;;;3.60;73.60;;;;;;5047966;28;20910;-71
2023/03/06 06:56:52;;;;;;;20.83;9.57;;;3.70;73.60;;;;;;5047169;28;20215;-72
2023/03/06 06:59:18;;;;;;;21.13;9.20;;;3.70;73.50;;;;;;5054886;28;20188;-73
2023/03/06 07:01:44;;;;;;;20.93;9.87;;;3.70;73.50;;;;;;5033243;28;20636;-73
2023/03/06 07:04:12;;;;;;;19.93;8.17;;;3.80;73.20;;;;;;5048704;28;20566;-72
2023/03/06 07:06:37;;;;;;;19.53;8.83;;;3.90;73.00;;;;;;5047007;28;20703;-72
2023/03/06 07:09:04;;;;;;;20.63;8.90;;;3.90;73.00;;;;;;5044155;28;20442;-72
2023/03/06 07:11:30;;;;;;;22.40;9.10;;;3.90;73.00;;;;;;5052015;28;20209;-73
2023/03/06 07:13:55;;;;;;;19.60;8.80;;;4.00;73.00;;;;;;5044692;28;20462;-72
2023/03/06 07:16:21;;;;;;;26.73;9.30;;;4.10;72.60;;;;;;5049068;28;20611;-72
2023/03/06 07:18:47;;;;;;;15.57;7.83;;;4.10;72.60;;;;;;5046526;28;20307;-73
2023/03/06 07:21:12;;;;;;;17.90;8.00;;;4.10;72.60;;;;;;5051643;28;20243;-72
2023/03/06 07:23:38;;;;;;;21.03;9.37;;;4.10;72.60;;;;;;5050816;28;20323;-72
2023/03/06 07:26:04;;;;;;;22.23;9.67;;;4.20;72.40;;;;;;5050346;28;20911;-73
2023/03/06 07:28:30;;;;;;;25.83;10.50;;;4.10;72.30;;;;;;5029983;28;20454;-73
2023/03/06 07:30:56;;;;;;;18.60;8.63;;;4.10;72.30;;;;;;5051490;28;21009;-72
2023/03/06 07:33:21;;;;;;;20.57;9.57;;;4.10;72.10;;;;;;5050346;28;20848;-72
2023/03/06 07:35:47;;;;;;;20.27;9.30;;;4.10;72.30;;;;;;5052836;28;20604;-73
2023/03/06 07:38:13;;;;;;;19.53;9.40;;;4.10;72.40;;;;;;5047475;28;20217;-75
2023/03/06 07:40:39;;;;;;;20.20;9.10;;;4.00;72.60;;;;;;5055799;28;20234;-72
2023/03/06 07:43:05;;;;;;;25.03;9.30;;;4.10;72.90;;;;;;5033728;28;20455;-72
2023/03/06 07:45:31;;;;;;;19.73;9.20;;;4.10;72.70;;;;;;5048539;28;20469;-73
2023/03/06 07:47:57;;;;;;;19.00;8.43;;;4.10;72.60;;;;;;5044336;28;21000;-73
2023/03/06 07:50:23;;;;;;;32.03;10.30;;;4.20;72.70;;;;;;5030238;28;20471;-72
2023/03/06 07:52:49;;;;;;;20.13;9.00;;;4.20;72.70;;;;;;5042116;28;20225;-71
2023/03/06 07:55:15;;;;;;;21.10;8.50;;;4.20;72.90;;;;;;5048804;28;20429;-71
2023/03/06 07:57:41;;;;;;;21.60;9.50;;;4.20;72.90;;;;;;5043322;28;20467;-73
2023/03/06 08:00:13;;;;;;;19.47;9.00;;;4.30;72.90;;;;;;5050477;28;20751;-73
2023/03/06 08:02:40;;;;;;;18.20;8.63;;;4.30;72.90;;;;;;5043174;28;20475;-74
2023/03/06 08:05:07;;;;;;;21.13;9.17;;;4.30;72.40;;;;;;5033529;28;20505;-76
2023/03/06 08:07:33;;;;;;;23.63;9.80;;;4.30;72.40;;;;;;5043253;28;20467;-74
2023/03/06 08:09:59;;;;;;;16.23;8.73;;;4.30;72.30;;;;;;5052335;28;20449;-73
2023/03/06 08:12:24;;;;;;;21.10;8.23;;;4.30;72.30;;;;;;5043228;28;20428;-72
2023/03/06 08:14:50;;;;;;;17.27;8.70;;;4.30;72.10;;;;;;5051855;28;20192;-71
2023/03/06 08:17:15;;;;;;;17.47;8.10;;;4.30;72.30;;;;;;5047606;28;20208;-73
2023/03/06 08:19:41;;;;;;;23.40;9.60;;;4.40;72.30;;;;;;5053442;28;20188;-73
2023/03/06 08:22:06;;;;;;;18.20;9.00;;;4.50;72.30;;;;;;5051167;28;20194;-73
2023/03/06 08:24:33;;;;;;;28.60;9.47;;;4.60;72.10;;;;;;5052131;28;20600;-73
2023/03/06 08:26:59;;;;;;;18.03;8.73;;;4.80;71.70;;;;;;5048293;28;20216;-74
2023/03/06 08:29:26;;;;;;;21.27;9.43;;;4.90;71.40;;;;;;5039260;28;20488;-72
2023/03/06 08:31:51;;;;;;;20.17;8.70;;;4.90;70.80;;;;;;5046721;28;20431;-74
2023/03/06 08:34:20;;;;;;;19.30;7.53;;;5.00;71.00;;;;;;5031422;28;20431;-74
2023/03/06 08:36:45;;;;;;;15.67;7.70;;;5.20;70.80;;;;;;5042096;28;20675;-74
2023/03/06 08:39:12;;;;;;;17.63;8.90;;;5.20;70.20;;;;;;5045663;28;20443;-74
2023/03/06 08:41:39;;;;;;;17.20;7.17;;;5.10;70.40;;;;;;5028174;28;20818;-73
2023/03/06 08:44:05;;;;;;;13.20;6.60;;;5.00;70.50;;;;;;5049395;28;20481;-73
2023/03/06 08:46:34;;;;;;;12.93;6.90;;;5.10;70.50;;;;;;5047248;28;20411;-73
2023/03/06 08:48:59;;;;;;;17.33;6.90;;;5.20;69.90;;;;;;5035505;28;20488;-74
2023/03/06 08:51:26;;;;;;;16.57;7.00;;;5.30;69.80;;;;;;5046633;28;20736;-72
2023/03/06 08:53:52;;;;;;;14.60;7.33;;;5.20;69.50;;;;;;5048963;28;20184;-74
2023/03/06 08:56:36;;;;;;;17.40;6.83;;;5.20;69.90;;;;;;5045453;28;20485;-75
2023/03/06 08:59:03;;;;;;;15.93;7.27;;;5.40;69.50;;;;;;5041419;28;20438;-74
2023/03/06 09:01:35;;;;;;;16.93;6.43;;;5.60;69.40;;;;;;5051893;28;20444;-74
2023/03/06 09:04:03;;;;;;;14.80;7.00;;;5.60;68.30;;;;;;5048930;28;20467;-72
2023/03/06 09:06:31;;;;;;;13.63;6.80;;;5.70;68.60;;;;;;5049141;28;20423;-73
2023/03/06 09:08:57;;;;;;;14.53;6.97;;;5.70;68.90;;;;;;5045766;28;20439;-72
2023/03/06 09:11:25;;;;;;;12.73;6.43;;;5.70;69.10;;;;;;5051943;28;20795;-71
2023/03/06 09:13:52;;;;;;;13.73;7.37;;;5.80;68.20;;;;;;5054490;28;20181;-72
2023/03/06 09:16:18;;;;;;;15.17;7.90;;;5.80;67.90;;;;;;5051946;28;20914;-75
2023/03/06 09:18:44;;;;;;;17.27;6.90;;;5.80;68.00;;;;;;5045890;28;20569;-74
2023/03/06 09:21:09;;;;;;;14.97;6.53;;;5.80;67.70;;;;;;5051166;28;20419;-73
2023/03/06 09:23:38;;;;;;;20.87;7.13;;;5.80;67.50;;;;;;5045670;28;20205;-73
2023/03/06 09:26:04;;;;;;;14.70;6.53;;;5.70;68.00;;;;;;5047156;28;20457;-71
2023/03/06 09:28:30;;;;;;;12.80;6.17;;;5.70;68.20;;;;;;5046787;28;20511;-73
2023/03/06 09:30:56;;;;;;;16.00;6.43;;;5.50;68.00;;;;;;5030388;28;20435;-73
2023/03/06 09:33:22;;;;;;;10.33;6.00;;;5.50;68.90;;;;;;5050671;28;20180;-72
2023/03/06 09:35:51;;;;;;;14.03;7.10;;;5.50;69.10;;;;;;5045942;28;20439;-74
2023/03/06 09:38:21;;;;;;;15.63;6.30;;;5.50;69.20;;;;;;5049741;28;20493;-73
2023/03/06 09:41:00;;;;;;;12.97;6.83;;;5.50;69.10;;;;;;5056531;28;20542;-73
2023/03/06 09:43:28;;;;;;;19.80;6.60;;;5.50;68.90;;;;;;5051768;28;21374;-73
2023/03/06 09:45:54;;;;;;;11.60;6.30;;;5.30;69.20;;;;;;5055083;28;20443;-72
2023/03/06 09:48:27;;;;;;;16.70;7.63;;;5.30;69.20;;;;;;5046094;28;20486;-73
2023/03/06 09:51:15;;;;;;;13.87;6.90;;;5.30;69.40;;;;;;5036308;28;20235;-74
2023/03/06 09:53:41;;;;;;;12.47;6.43;;;5.30;69.50;;;;;;5053794;28;20491;-74
2023/03/06 09:56:15;;;;;;;14.23;7.37;;;5.40;69.70;;;;;;5041842;28;20415;-73
2023/03/06 09:58:51;;;;;;;15.23;6.03;;;5.50;69.70;;;;;;5050660;28;20227;-74
2023/03/06 10:01:22;;;;;;;14.43;6.57;;;5.40;69.40;;;;;;5030148;28;20838;-73
2023/03/06 10:04:04;;;;;;;12.93;5.80;;;5.60;69.70;;;;;;5046569;28;20562;-73
2023/03/06 10:06:33;;;;;;;10.50;5.70;;;5.70;69.20;;;;;;5033344;28;20720;-72
2023/03/06 10:09:12;;;;;;;13.80;5.90;;;5.60;68.60;;;;;;5048782;28;20444;-71
2023/03/06 10:11:42;;;;;;;14.23;6.40;;;5.60;68.50;;;;;;5048738;28;20418;-75
2023/03/06 10:14:30;;;;;;;16.03;7.07;;;5.80;68.50;;;;;;5048103;28;20418;-73
2023/03/06 10:16:57;;;;;;;17.20;6.67;;;5.70;68.00;;;;;;5049379;28;20451;-74
2023/03/06 10:19:30;;;;;;;13.87;5.83;;;5.70;68.30;;;;;;5048602;28;20443;-72
2023/03/06 10:22:06;;;;;;;14.20;7.00;;;5.90;68.60;;;;;;5052234;28;20418;-71
2023/03/06 10:24:36;;;;;;;10.50;5.87;;;6.00;68.50;;;;;;5054379;28;20461;-73
2023/03/06 10:27:39;;;;;;;10.60;6.23;;;6.00;68.60;;;;;;5049209;28;20458;-73
2023/03/06 10:30:37;;;;;;;14.03;6.27;;;6.00;68.50;;;;;;5049686;28;20964;-74
2023/03/06 10:33:16;;;;;;;13.77;6.60;;;6.00;68.30;;;;;;5044222;28;20411;-72
2023/03/06 10:35:50;;;;;;;11.87;5.77;;;6.10;67.70;;;;;;5052802;28;20422;-74
2023/03/06 10:38:18;;;;;;;11.00;5.90;;;6.10;67.50;;;;;;5050146;28;20469;-72
2023/03/06 10:41:04;;;;;;;14.50;6.53;;;6.00;67.50;;;;;;5053187;28;20964;-72
2023/03/06 10:43:29;;;;;;;8.97;5.60;;;5.90;67.60;;;;;;5034826;28;20632;-73
2023/03/06 10:45:55;;;;;;;19.03;6.33;;;5.80;67.20;;;;;;5050373;28;20537;-72
2023/03/06 10:48:26;;;;;;;14.17;7.40;;;5.80;67.00;;;;;;5031224;28;20223;-71
2023/03/06 10:51:07;;;;;;;14.40;6.43;;;5.70;67.70;;;;;;5050096;28;20512;-74
2023/03/06 10:53:33;;;;;;;12.87;5.80;;;5.50;67.50;;;;;;5033986;28;20418;-72
2023/03/06 10:55:59;;;;;;;15.33;7.17;;;5.40;67.70;;;;;;5031663;28;20434;-73
2023/03/06 10:58:30;;;;;;;13.13;6.33;;;5.30;68.60;;;;;;5047983;28;20212;-74
2023/03/06 11:01:20;;;;;;;13.17;6.37;;;5.40;68.60;;;;;;5046443;28;20442;-74
2023/03/06 11:03:47;;;;;;;12.50;6.37;;;5.50;68.50;;;;;;5039923;28;20470;-74
2023/03/06 11:06:29;;;;;;;14.00;5.73;;;5.60;68.30;;;;;;5047627;28;20488;-72
2023/03/06 11:09:14;;;;;;;13.07;6.10;;;5.60;68.50;;;;;;5042098;28;20538;-73
2023/03/06 11:11:39;;;;;;;13.03;6.47;;;6.00;68.30;;;;;;5045518;28;20434;-73
2023/03/06 11:14:15;;;;;;;11.80;6.40;;;6.00;67.00;;;;;;5047680;28;20497;-74
2023/03/06 11:16:53;;;;;;;12.90;6.10;;;6.00;67.00;;;;;;5041825;28;20196;-73
2023/03/06 11:19:26;;;;;;;19.47;7.63;;;6.20;67.00;;;;;;5045463;28;20852;-72
2023/03/06 11:22:17;;;;;;;10.13;5.60;;;6.20;66.60;;;;;;5049679;28;20427;-72
2023/03/06 11:24:47;;;;;;;16.93;6.63;;;6.30;66.60;;;;;;5040986;28;20422;-75
2023/03/06 11:27:33;;;;;;;16.60;6.90;;;6.40;66.60;;;;;;5047199;28;20476;-73
2023/03/06 11:30:04;;;;;;;16.00;6.63;;;6.20;65.40;;;;;;5038001;28;21003;-74
2023/03/06 11:32:41;;;;;;;14.70;6.40;;;6.10;66.30;;;;;;5055807;28;20419;-73
2023/03/06 11:35:15;;;;;;;12.13;6.13;;;6.30;65.70;;;;;;5051963;28;20852;-75
2023/03/06 11:37:58;;;;;;;16.27;6.70;;;6.20;65.40;;;;;;5047294;28;20451;-73
2023/03/06 11:40:39;;;;;;;15.00;6.70;;;6.50;64.80;;;;;;5026519;28;20447;-73
2023/03/06 11:43:50;;;;;;;18.10;7.87;;;6.60;64.50;;;;;;5050036;28;20474;-71
2023/03/06 11:46:24;;;;;;;13.90;6.17;;;6.60;63.70;;;;;;5017632;28;21338;-73
2023/03/06 11:48:56;;;;;;;14.33;7.43;;;6.50;63.70;;;;;;5049479;28;20545;-72
2023/03/06 11:51:31;;;;;;;17.50;7.03;;;6.50;63.50;;;;;;5030511;28;20467;-73
2023/03/06 11:53:59;;;;;;;13.57;6.50;;;6.30;63.90;;;;;;5049263;28;20423;-73
2023/03/06 11:56:43;;;;;;;10.00;6.13;;;6.60;63.90;;;;;;5060808;28;20482;-75
2023/03/06 11:59:23;;;;;;;15.77;7.43;;;6.70;62.90;;;;;;5051313;28;20423;-72
2023/03/06 12:02:26;;;;;;;16.63;7.30;;;6.70;62.90;;;;;;5066736;28;20434;-73
2023/03/06 12:05:02;;;;;;;17.33;7.33;;;6.90;62.80;;;;;;5058662;28;20541;-73
2023/03/06 12:07:48;;;;;;;13.20;6.70;;;6.90;62.60;;;;;;5048281;28;20473;-73
2023/03/06 12:10:30;;;;;;;14.73;6.80;;;7.00;61.70;;;;;;5050655;28;20462;-74
2023/03/06 12:13:14;;;;;;;10.30;6.37;;;7.00;61.20;;;;;;5034289;28;20516;-75
2023/03/06 12:15:48;;;;;;;14.27;7.20;;;7.20;61.30;;;;;;5053697;28;20457;-74
2023/03/06 12:18:17;;;;;;;15.17;7.87;;;7.30;60.30;;;;;;5047422;28;20949;-75
2023/03/06 12:20:56;;;;;;;13.13;6.93;;;7.40;59.90;;;;;;5053485;28;20517;-74
2023/03/06 12:23:24;;;;;;;14.90;7.13;;;7.50;59.70;;;;;;5053476;28;20469;-75
2023/03/06 12:26:00;;;;;;;12.47;6.80;;;7.30;60.10;;;;;;5052283;28;20431;-74
2023/03/06 12:28:59;;;;;;;10.27;6.30;;;7.30;59.70;;;;;;5049058;28;20457;-74
2023/03/06 12:31:31;;;;;;;15.60;7.30;;;7.40;60.00;;;;;;5052509;28;20429;-75
2023/03/06 12:34:37;;;;;;;12.17;7.00;;;7.50;58.70;;;;;;5048776;28;20434;-74
2023/03/06 12:37:07;;;;;;;12.20;5.87;;;7.40;58.50;;;;;;5045260;28;20466;-74
2023/03/06 12:40:11;;;;;;;16.63;7.40;;;7.30;58.80;;;;;;5051898;28;20442;-74
2023/03/06 12:43:09;;;;;;;10.83;6.47;;;7.10;58.70;;;;;;5047613;28;20469;-73
2023/03/06 12:45:37;;;;;;;13.87;6.70;;;7.00;58.90;;;;;;5045029;28;20971;-75
2023/03/06 12:48:13;;;;;;;12.27;6.40;;;7.00;59.20;;;;;;5045960;28;20461;-73
2023/03/06 12:50:43;;;;;;;15.67;7.47;;;6.90;59.60;;;;;;5044766;28;20914;-74
2023/03/06 12:53:26;;;;;;;14.03;7.40;;;6.80;60.10;;;;;;5048536;28;20511;-75